Seven Lakes, North Carolina
Current Conditions -  °F | °C
As of 2:55 AM on Wednesday 26 Nov 2014 (Local Time) from KSOP Reporting Station
Overcast Overcast  
Wind Chill: 46°   Ceiling: 400
Heat Index: 48°   Visibility: 8mi
Dew Point: -4°   Wind: 6mph
Humidity: 11%   Direction: 10°N
Pressure: 29.9"   Gusts: NA
Location:  35.2431°N, 79.5385°W
Report Text: KSOP 260755Z AUTO 01005KT 8SM OVC004 09/M20 A2990 RMK AO1 P0018
Loading
Personal Weather Stations






























Interactive Weather Map New forecast layout! Learn more

10-Day Weather Forecast

Advertisements
Track Severe Weather on mobile